THY99 LTAC-LTFE
Flight info
| Callsign | THY99 |
|---|---|
| Flight time | N/A |
| Altitude | 36000 |
| Route | HALIL UR32 TUMER DCT LAVTA/N0460F370 UW87 KAVAK |
| Aircraft | A306/H-SDE3FGHIRWY/LB1 |
Departure
| Time | N/A |
|---|---|
| Airport | Esenboğa International Airport (LTAC) |
Arrival
| Time | 2026-05-09 13:42 |
|---|---|
| Airport | Milas Bodrum International Airport (LTFE) |
| Time | Latitude | Longitude | Altitude | Speed | Heading |
|---|---|---|---|---|---|
| 2026-05-09 13:02 | 39.40637 | 31.45942 | 29132 ft | 447 kts | 242° |
| 2026-05-09 13:02 | 39.39073 | 31.42478 | 29546 ft | 445 kts | 242° |
| 2026-05-09 13:02 | 39.37511 | 31.39022 | 29948 ft | 444 kts | 242° |
| 2026-05-09 13:02 | 39.35954 | 31.35582 | 30325 ft | 443 kts | 242° |
| 2026-05-09 13:03 | 39.34400 | 31.32151 | 30681 ft | 441 kts | 242° |
| 2026-05-09 13:03 | 39.32858 | 31.28751 | 31082 ft | 438 kts | 242° |
| 2026-05-09 13:03 | 39.31317 | 31.25355 | 31393 ft | 438 kts | 242° |
| 2026-05-09 13:03 | 39.29516 | 31.22121 | 31643 ft | 443 kts | 228° |
| 2026-05-09 13:04 | 39.27083 | 31.19729 | 31917 ft | 451 kts | 212° |
| 2026-05-09 13:04 | 39.24152 | 31.18207 | 32277 ft | 456 kts | 201° |
| 2026-05-09 13:04 | 39.21079 | 31.17185 | 32625 ft | 457 kts | 197° |
| 2026-05-09 13:04 | 39.18002 | 31.16219 | 32961 ft | 453 kts | 200° |
| 2026-05-09 13:05 | 39.15103 | 31.14719 | 33317 ft | 446 kts | 211° |
| 2026-05-09 13:05 | 39.12529 | 31.12535 | 33664 ft | 440 kts | 222° |
| 2026-05-09 13:05 | 39.10318 | 31.09846 | 34006 ft | 436 kts | 230° |
| 2026-05-09 13:05 | 39.08384 | 31.06850 | 34296 ft | 433 kts | 235° |
| 2026-05-09 13:06 | 39.06629 | 31.03706 | 34557 ft | 432 kts | 238° |
| 2026-05-09 13:06 | 39.04959 | 31.00497 | 34809 ft | 431 kts | 239° |
| 2026-05-09 13:06 | 39.03308 | 30.97267 | 35016 ft | 432 kts | 239° |
| 2026-05-09 13:06 | 39.01671 | 30.94083 | 35262 ft | 432 kts | 238° |
| 2026-05-09 13:07 | 38.99993 | 30.90871 | 35501 ft | 432 kts | 238° |
| 2026-05-09 13:07 | 38.98298 | 30.87673 | 35761 ft | 432 kts | 238° |
| 2026-05-09 13:07 | 38.96590 | 30.84484 | 35938 ft | 433 kts | 238° |
| 2026-05-09 13:08 | 38.93164 | 30.78149 | 35957 ft | 429 kts | 238° |
| 2026-05-09 13:08 | 38.89757 | 30.71872 | 35955 ft | 427 kts | 238° |
| 2026-05-09 13:09 | 38.86356 | 30.65608 | 35958 ft | 427 kts | 238° |
| 2026-05-09 13:09 | 38.82964 | 30.59347 | 35955 ft | 427 kts | 239° |
| 2026-05-09 13:10 | 38.79528 | 30.53146 | 35961 ft | 430 kts | 230° |
| 2026-05-09 13:10 | 38.75371 | 30.47709 | 35960 ft | 429 kts | 229° |
| 2026-05-09 13:11 | 38.71125 | 30.42276 | 35959 ft | 428 kts | 229° |
| 2026-05-09 13:11 | 38.66934 | 30.36907 | 35965 ft | 429 kts | 229° |
| 2026-05-09 13:12 | 38.62709 | 30.31501 | 35964 ft | 430 kts | 229° |
| 2026-05-09 13:12 | 38.58475 | 30.26093 | 35969 ft | 430 kts | 229° |
| 2026-05-09 13:13 | 38.54239 | 30.20692 | 35969 ft | 430 kts | 229° |
| 2026-05-09 13:13 | 38.50007 | 30.15305 | 35955 ft | 430 kts | 229° |
| 2026-05-09 13:14 | 38.45781 | 30.09935 | 35978 ft | 427 kts | 229° |
| 2026-05-09 13:16 | 38.28943 | 29.88633 | 36107 ft | 423 kts | 229° |
| 2026-05-09 13:16 | 38.24757 | 29.83360 | 36113 ft | 423 kts | 229° |
| 2026-05-09 13:17 | 38.20577 | 29.78100 | 36111 ft | 428 kts | 229° |
| 2026-05-09 13:17 | 38.16344 | 29.72789 | 36049 ft | 425 kts | 229° |
| 2026-05-09 13:17 | 38.14245 | 29.70159 | 35648 ft | 422 kts | 229° |
| 2026-05-09 13:18 | 38.12173 | 29.67566 | 35166 ft | 415 kts | 229° |
| 2026-05-09 13:18 | 38.10125 | 29.65005 | 34685 ft | 409 kts | 229° |
| 2026-05-09 13:18 | 38.08108 | 29.62484 | 34214 ft | 404 kts | 229° |
| 2026-05-09 13:18 | 38.06120 | 29.59999 | 33689 ft | 399 kts | 229° |
| 2026-05-09 13:19 | 38.04142 | 29.57528 | 33156 ft | 398 kts | 229° |
| 2026-05-09 13:19 | 38.02172 | 29.55068 | 32614 ft | 398 kts | 229° |
| 2026-05-09 13:19 | 38.00196 | 29.52601 | 32124 ft | 399 kts | 229° |
| 2026-05-09 13:19 | 37.98213 | 29.50127 | 31606 ft | 402 kts | 228° |
| 2026-05-09 13:20 | 37.96214 | 29.47638 | 31133 ft | 404 kts | 228° |
| 2026-05-09 13:20 | 37.94200 | 29.45133 | 30648 ft | 406 kts | 228° |
| 2026-05-09 13:20 | 37.92179 | 29.42622 | 30163 ft | 408 kts | 227° |
| 2026-05-09 13:20 | 37.90144 | 29.40095 | 29415 ft | 411 kts | 227° |
| 2026-05-09 13:21 | 37.88097 | 29.37557 | 28576 ft | 413 kts | 228° |
| 2026-05-09 13:21 | 37.86039 | 29.35007 | 27795 ft | 415 kts | 228° |
| 2026-05-09 13:21 | 37.83975 | 29.32451 | 27025 ft | 416 kts | 228° |
| 2026-05-09 13:21 | 37.81899 | 29.29882 | 26276 ft | 418 kts | 228° |
| 2026-05-09 13:22 | 37.79814 | 29.27304 | 25551 ft | 420 kts | 228° |
| 2026-05-09 13:22 | 37.77718 | 29.24713 | 24839 ft | 421 kts | 228° |
| 2026-05-09 13:22 | 37.75624 | 29.22129 | 24139 ft | 419 kts | 228° |
| 2026-05-09 13:23 | 37.67484 | 29.12113 | 21070 ft | 401 kts | 228° |
| 2026-05-09 13:23 | 37.65496 | 29.09673 | 20327 ft | 396 kts | 228° |
| 2026-05-09 13:24 | 37.63534 | 29.07260 | 19602 ft | 392 kts | 228° |
| 2026-05-09 13:24 | 37.61588 | 29.04868 | 18889 ft | 389 kts | 228° |
| 2026-05-09 13:24 | 37.59653 | 29.02493 | 18157 ft | 386 kts | 228° |
| 2026-05-09 13:24 | 37.57737 | 29.00144 | 17370 ft | 383 kts | 228° |
| 2026-05-09 13:25 | 37.55837 | 28.97815 | 16606 ft | 380 kts | 227° |
| 2026-05-09 13:25 | 37.53949 | 28.95503 | 15876 ft | 376 kts | 227° |
| 2026-05-09 13:25 | 37.50252 | 28.90984 | 15128 ft | 367 kts | 227° |
| 2026-05-09 13:26 | 37.48414 | 28.88739 | 15084 ft | 368 kts | 227° |
| 2026-05-09 13:26 | 37.46575 | 28.86493 | 15087 ft | 369 kts | 227° |
| 2026-05-09 13:26 | 37.44755 | 28.84274 | 15086 ft | 369 kts | 227° |
| 2026-05-09 13:26 | 37.42912 | 28.82028 | 15091 ft | 369 kts | 227° |
| 2026-05-09 13:27 | 37.41071 | 28.79787 | 15086 ft | 369 kts | 227° |
| 2026-05-09 13:27 | 37.39227 | 28.77542 | 15082 ft | 369 kts | 227° |
| 2026-05-09 13:27 | 37.37386 | 28.75304 | 15074 ft | 364 kts | 227° |
| 2026-05-09 13:27 | 37.35733 | 28.73008 | 15055 ft | 344 kts | 239° |
| 2026-05-09 13:28 | 37.34973 | 28.71288 | 15077 ft | 337 kts | 245° |
| 2026-05-09 13:28 | 37.33994 | 28.68624 | 15073 ft | 335 kts | 248° |
| 2026-05-09 13:28 | 37.33048 | 28.65947 | 15069 ft | 334 kts | 248° |
| 2026-05-09 13:28 | 37.32112 | 28.63309 | 15064 ft | 327 kts | 248° |
| 2026-05-09 13:29 | 37.31187 | 28.60718 | 15066 ft | 324 kts | 247° |
| 2026-05-09 13:29 | 37.30264 | 28.58142 | 15067 ft | 323 kts | 247° |
| 2026-05-09 13:29 | 37.29337 | 28.55570 | 15064 ft | 322 kts | 248° |
| 2026-05-09 13:29 | 37.28436 | 28.53084 | 15043 ft | 303 kts | 247° |
| 2026-05-09 13:30 | 37.27580 | 28.50740 | 14895 ft | 290 kts | 248° |
| 2026-05-09 13:30 | 37.26751 | 28.48447 | 14556 ft | 286 kts | 248° |
| 2026-05-09 13:30 | 37.25932 | 28.46178 | 14173 ft | 284 kts | 248° |
| 2026-05-09 13:30 | 37.25119 | 28.43927 | 13743 ft | 283 kts | 247° |
| 2026-05-09 13:31 | 37.24301 | 28.41670 | 13272 ft | 283 kts | 247° |
| 2026-05-09 13:31 | 37.23485 | 28.39421 | 12846 ft | 282 kts | 248° |
| 2026-05-09 13:31 | 37.22673 | 28.37186 | 12446 ft | 280 kts | 248° |
| 2026-05-09 13:31 | 37.21870 | 28.34969 | 12041 ft | 277 kts | 247° |
| 2026-05-09 13:32 | 37.21092 | 28.32830 | 11828 ft | 268 kts | 247° |
| 2026-05-09 13:32 | 37.19544 | 28.28607 | 11158 ft | 263 kts | 248° |
| 2026-05-09 13:32 | 37.18789 | 28.26530 | 10803 ft | 261 kts | 247° |
| 2026-05-09 13:33 | 37.18038 | 28.24469 | 10465 ft | 259 kts | 247° |
| 2026-05-09 13:33 | 37.17300 | 28.22448 | 10136 ft | 257 kts | 248° |
| 2026-05-09 13:33 | 37.16559 | 28.20415 | 9697 ft | 256 kts | 247° |
| 2026-05-09 13:33 | 37.15815 | 28.18377 | 9249 ft | 257 kts | 247° |
| 2026-05-09 13:34 | 37.15070 | 28.16346 | 8878 ft | 256 kts | 247° |
| 2026-05-09 13:34 | 37.14361 | 28.14327 | 8635 ft | 248 kts | 251° |
| 2026-05-09 13:34 | 37.14163 | 28.12240 | 8465 ft | 239 kts | 277° |
| 2026-05-09 13:34 | 37.14551 | 28.10255 | 8348 ft | 230 kts | 288° |
| 2026-05-09 13:35 | 37.15072 | 28.08413 | 8090 ft | 220 kts | 288° |
| 2026-05-09 13:35 | 37.15546 | 28.06597 | 7815 ft | 220 kts | 287° |
| 2026-05-09 13:35 | 37.15980 | 28.04742 | 7589 ft | 221 kts | 284° |
| 2026-05-09 13:35 | 37.16402 | 28.02889 | 7264 ft | 221 kts | 285° |
| 2026-05-09 13:36 | 37.16839 | 28.01041 | 6865 ft | 220 kts | 285° |
| 2026-05-09 13:36 | 37.17283 | 27.99204 | 6470 ft | 221 kts | 285° |
| 2026-05-09 13:36 | 37.17727 | 27.97364 | 6057 ft | 221 kts | 286° |
| 2026-05-09 13:36 | 37.18171 | 27.95519 | 5638 ft | 220 kts | 286° |
| 2026-05-09 13:37 | 37.18610 | 27.93684 | 5271 ft | 219 kts | 286° |
| 2026-05-09 13:37 | 37.19048 | 27.91853 | 4907 ft | 220 kts | 286° |
| 2026-05-09 13:37 | 37.19488 | 27.90013 | 4529 ft | 219 kts | 286° |
| 2026-05-09 13:37 | 37.19917 | 27.88212 | 4168 ft | 212 kts | 285° |
| 2026-05-09 13:38 | 37.20339 | 27.86450 | 3804 ft | 210 kts | 286° |
| 2026-05-09 13:38 | 37.20759 | 27.84709 | 3455 ft | 208 kts | 286° |
| 2026-05-09 13:38 | 37.21168 | 27.83006 | 3109 ft | 206 kts | 285° |
| 2026-05-09 13:38 | 37.21573 | 27.81305 | 2748 ft | 199 kts | 285° |
| 2026-05-09 13:39 | 37.21960 | 27.79687 | 2424 ft | 189 kts | 285° |
| 2026-05-09 13:39 | 37.22326 | 27.78162 | 2137 ft | 176 kts | 284° |
| 2026-05-09 13:39 | 37.22668 | 27.76723 | 1832 ft | 167 kts | 285° |
| 2026-05-09 13:39 | 37.22994 | 27.75365 | 1549 ft | 159 kts | 285° |
| 2026-05-09 13:40 | 37.23302 | 27.74068 | 1242 ft | 152 kts | 282° |
| 2026-05-09 13:40 | 37.23602 | 27.72813 | 1003 ft | 150 kts | 287° |
| 2026-05-09 13:40 | 37.23899 | 27.71577 | 765 ft | 146 kts | 285° |
| 2026-05-09 13:40 | 37.24200 | 27.70361 | 560 ft | 144 kts | 284° |
| 2026-05-09 13:41 | 37.24484 | 27.69162 | 304 ft | 142 kts | 286° |
| 2026-05-09 13:41 | 37.24762 | 27.67993 | 66 ft | 137 kts | 285° |
| 2026-05-09 13:41 | 37.25014 | 27.66936 | 35 ft | 108 kts | 286° |
| 2026-05-09 13:41 | 37.25180 | 27.66235 | 36 ft | 60 kts | 286° |
| 2026-05-09 13:42 | 37.25244 | 27.65849 | 35 ft | 40 kts | 274° |
| 2026-05-09 13:42 | 37.25211 | 27.65615 | 35 ft | 14 kts | 237° |
| 2026-05-09 13:42 | 37.25164 | 27.65577 | 37 ft | 5 kts | 168° |
| 2026-05-09 13:42 | 37.25155 | 27.65597 | 37 ft | 2 kts | 108° |
| 2026-05-09 13:43 | 37.25133 | 27.65688 | 36 ft | 27 kts | 105° |
| 2026-05-09 13:43 | 37.25087 | 27.65900 | 37 ft | 11 kts | 106° |
| 2026-05-09 13:43 | 37.25085 | 27.65908 | 37 ft | 3 kts | 106° |
| 2026-05-09 13:43 | 37.25064 | 27.65998 | 37 ft | 19 kts | 105° |
| 2026-05-09 13:44 | 37.25010 | 27.66213 | 37 ft | 33 kts | 109° |
| 2026-05-09 13:44 | 37.24940 | 27.66513 | 34 ft | 35 kts | 105° |
| 2026-05-09 13:44 | 37.24880 | 27.66775 | 34 ft | 31 kts | 108° |
| 2026-05-09 13:44 | 37.24763 | 27.66954 | 36 ft | 19 kts | 154° |
| 2026-05-09 13:45 | 37.24662 | 27.66984 | 36 ft | 12 kts | 130° |
| 2026-05-09 13:45 | 37.24636 | 27.67078 | 36 ft | 10 kts | 115° |
| 2026-05-09 13:45 | 37.24583 | 27.67099 | 36 ft | 8 kts | 191° |
| 2026-05-09 13:45 | 37.24539 | 27.67084 | 37 ft | 0 kts | 197° |